Time;durP1;ratioP1;P1;durP2;ratioP2;P2;SDS_P1;SDS_P2;PMS_P1;PMS_P2;Temp;Humidity;BMP_temperature;BMP_pressure;BME280_temperature;BME280_humidity;BME280_pressure;Samples;Min_cycle;Max_cycle;Signal;HPM_P1;HPM_P2
2023/02/22 00:00:44;;;;;;;46.30;20.70;;;;;;;;;;5071716;28;20027;-50
2023/02/22 00:03:14;;;;;;;37.45;19.77;;;;;;;;;;5071620;28;20821;-50
2023/02/22 00:05:43;;;;;;;45.42;20.25;;;;;;;;;;5071638;28;20037;-50
2023/02/22 00:08:10;;;;;;;49.17;18.30;;;;;;;;;;5071390;28;20047;-50
2023/02/22 00:10:37;;;;;;;53.63;19.45;;;;;;;;;;5070468;28;20021;-50
2023/02/22 00:13:04;;;;;;;46.30;19.23;;;;;;;;;;5071449;28;20029;-50
2023/02/22 00:15:30;;;;;;;52.75;20.77;;;;;;;;;;5071821;28;20024;-49
2023/02/22 00:17:55;;;;;;;56.00;19.90;;;;;;;;;;5071381;28;20055;-50
2023/02/22 00:20:22;;;;;;;42.50;18.63;;;;;;;;;;5071654;28;20016;-51
2023/02/22 00:22:48;;;;;;;42.70;17.95;;;;;;;;;;5071679;28;20115;-50
2023/02/22 00:25:16;;;;;;;51.47;20.83;;;;;;;;;;5071385;28;20107;-50
2023/02/22 00:27:41;;;;;;;45.95;19.35;;;;;;;;;;5071281;28;20040;-50
2023/02/22 00:30:08;;;;;;;46.22;19.05;;;;;;;;;;5071418;28;20077;-50
2023/02/22 00:32:34;;;;;;;48.28;19.38;;;;;;;;;;5071542;28;20419;-50
2023/02/22 00:34:59;;;;;;;37.72;18.33;;;;;;;;;;5071425;28;20116;-50
2023/02/22 00:37:24;;;;;;;49.50;21.83;;;;;;;;;;5069926;28;20028;-50
2023/02/22 00:39:50;;;;;;;48.20;19.35;;;;;;;;;;5069973;28;20043;-50
2023/02/22 00:42:16;;;;;;;47.58;17.80;;;;;;;;;;5071385;28;20043;-50
2023/02/22 00:44:43;;;;;;;44.28;19.35;;;;;;;;;;5071217;28;20452;-50
2023/02/22 00:47:11;;;;;;;37.67;20.88;;;;;;;;;;5071399;28;20039;-50
2023/02/22 00:49:36;;;;;;;44.20;18.20;;;;;;;;;;5071328;28;20021;-50
2023/02/22 00:52:03;;;;;;;42.60;19.27;;;;;;;;;;5072993;28;20414;-50
2023/02/22 00:54:29;;;;;;;44.88;20.35;;;;;;;;;;5075147;28;20051;-50
2023/02/22 00:56:57;;;;;;;53.10;20.15;;;;;;;;;;5075403;28;20024;-50
2023/02/22 00:59:22;;;;;;;46.70;17.23;;;;;;;;;;5075052;28;20012;-50
2023/02/22 01:01:48;;;;;;;42.90;18.00;;;;;;;;;;5074928;28;20039;-50
2023/02/22 01:04:13;;;;;;;52.47;20.08;;;;;;;;;;5075183;28;20032;-50
2023/02/22 01:06:39;;;;;;;43.88;17.58;;;;;;;;;;5075178;28;20040;-50
2023/02/22 01:09:06;;;;;;;44.45;19.48;;;;;;;;;;5074678;28;20541;-50
2023/02/22 01:11:32;;;;;;;37.30;16.38;;;;;;;;;;5073589;28;20032;-50
2023/02/22 01:13:59;;;;;;;38.35;18.13;;;;;;;;;;5074673;28;20036;-50
2023/02/22 01:16:25;;;;;;;37.83;17.08;;;;;;;;;;5074665;28;20032;-50
2023/02/22 01:18:50;;;;;;;46.72;20.73;;;;;;;;;;5074914;28;20021;-51
2023/02/22 01:21:16;;;;;;;46.95;18.38;;;;;;;;;;5073478;28;20546;-50
2023/02/22 01:23:45;;;;;;;40.80;17.00;;;;;;;;;;5073340;28;20024;-51
2023/02/22 01:26:10;;;;;;;43.08;17.27;;;;;;;;;;5074398;28;20082;-50
2023/02/22 01:28:36;;;;;;;41.40;15.88;;;;;;;;;;5074434;28;20040;-50
2023/02/22 01:31:02;;;;;;;44.85;20.30;;;;;;;;;;5074407;28;20651;-50
2023/02/22 01:33:27;;;;;;;46.22;17.17;;;;;;;;;;5072934;28;20085;-50
2023/02/22 01:35:52;;;;;;;48.90;17.77;;;;;;;;;;5073098;28;20031;-50
2023/02/22 01:38:18;;;;;;;37.28;15.25;;;;;;;;;;5074179;28;20028;-50
2023/02/22 01:40:46;;;;;;;34.42;15.05;;;;;;;;;;5073107;28;20028;-50
2023/02/22 01:43:18;;;;;;;43.85;17.38;;;;;;;;;;5073008;28;20021;-50
2023/02/22 01:46:13;;;;;;;35.83;17.27;;;;;;;;;;5056425;28;20119;-50
2023/02/22 01:48:44;;;;;;;46.63;17.67;;;;;;;;;;5041796;28;20472;-51
2023/02/22 01:51:09;;;;;;;36.63;15.48;;;;;;;;;;5074086;28;20078;-51
2023/02/22 01:53:53;;;;;;;47.67;18.23;;;;;;;;;;5074036;28;20403;-50
2023/02/22 01:56:19;;;;;;;36.13;15.65;;;;;;;;;;5072636;28;20123;-50
2023/02/22 01:58:49;;;;;;;35.47;15.15;;;;;;;;;;5073938;28;20024;-50
2023/02/22 02:01:17;;;;;;;38.65;14.95;;;;;;;;;;5073905;28;20036;-50
2023/02/22 02:03:43;;;;;;;31.73;13.85;;;;;;;;;;5071930;28;20020;-50
2023/02/22 02:06:11;;;;;;;36.03;16.58;;;;;;;;;;5073778;28;20043;-50
2023/02/22 02:08:48;;;;;;;32.78;14.52;;;;;;;;;;5072451;28;20045;-50
2023/02/22 02:11:15;;;;;;;30.95;14.75;;;;;;;;;;5072456;28;20032;-50
2023/02/22 02:13:40;;;;;;;37.33;18.17;;;;;;;;;;5072489;28;20062;-50
2023/02/22 02:16:06;;;;;;;32.70;14.95;;;;;;;;;;5073569;28;20021;-50
2023/02/22 02:18:31;;;;;;;46.95;16.52;;;;;;;;;;5072331;28;20463;-50
2023/02/22 02:21:13;;;;;;;37.78;15.82;;;;;;;;;;5072248;28;20036;-50
2023/02/22 02:23:56;;;;;;;37.30;15.40;;;;;;;;;;5072302;28;20105;-50
2023/02/22 02:26:21;;;;;;;;;;;;;;;;;;5073942;28;20032;-50
2023/02/22 02:28:47;;;;;;;39.42;15.77;;;;;;;;;;5073402;28;19912;-51
2023/02/22 02:31:15;;;;;;;39.63;14.63;;;;;;;;;;5071988;28;20024;-50
2023/02/22 02:33:56;;;;;;;33.92;15.63;;;;;;;;;;5073210;28;20051;-50
2023/02/22 02:36:28;;;;;;;38.58;13.15;;;;;;;;;;5071905;28;20032;-50
2023/02/22 02:38:58;;;;;;;43.22;17.52;;;;;;;;;;5071921;28;20064;-50
2023/02/22 02:41:25;;;;;;;31.38;14.68;;;;;;;;;;5071785;28;20017;-50
2023/02/22 02:43:58;;;;;;;41.20;15.75;;;;;;;;;;5073137;28;20499;-50
2023/02/22 02:46:23;;;;;;;39.05;15.68;;;;;;;;;;5072901;28;20039;-52
2023/02/22 02:48:53;;;;;;;38.92;16.90;;;;;;;;;;5072960;28;20029;-50
2023/02/22 02:51:20;;;;;;;38.10;14.15;;;;;;;;;;5071737;28;20107;-50
2023/02/22 02:53:46;;;;;;;39.75;15.30;;;;;;;;;;5071706;28;20032;-50
2023/02/22 02:56:12;;;;;;;41.80;14.82;;;;;;;;;;5072852;28;20115;-50
2023/02/22 02:58:43;;;;;;;43.15;16.20;;;;;;;;;;5071498;28;20104;-50
2023/02/22 03:01:10;;;;;;;33.80;16.35;;;;;;;;;;5071369;28;20040;-50
2023/02/22 03:04:01;;;;;;;41.50;15.25;;;;;;;;;;5071496;28;20055;-50
2023/02/22 03:06:36;;;;;;;40.58;16.38;;;;;;;;;;5072609;28;20056;-51
2023/02/22 03:09:17;;;;;;;43.67;15.27;;;;;;;;;;5071143;28;20572;-50
2023/02/22 03:11:47;;;;;;;41.97;14.90;;;;;;;;;;5072528;28;20025;-50
2023/02/22 03:14:36;;;;;;;35.17;14.60;;;;;;;;;;5070217;28;20028;-50
2023/02/22 03:17:24;;;;;;;31.20;15.02;;;;;;;;;;5034460;28;20041;-50
2023/02/22 03:19:52;;;;;;;38.30;14.75;;;;;;;;;;5034578;28;20068;-50
2023/02/22 03:22:26;;;;;;;30.67;14.48;;;;;;;;;;5070960;28;20024;-51
2023/02/22 03:24:57;;;;;;;32.80;14.68;;;;;;;;;;5072371;28;20038;-50
2023/02/22 03:27:26;;;;;;;34.30;14.20;;;;;;;;;;5070941;28;20036;-50
2023/02/22 03:29:56;;;;;;;34.72;15.13;;;;;;;;;;5070759;28;20300;-50
2023/02/22 03:32:24;;;;;;;41.65;16.63;;;;;;;;;;5070778;28;20032;-50
2023/02/22 03:34:55;;;;;;;37.25;15.00;;;;;;;;;;5070870;28;20043;-50
2023/02/22 03:37:25;;;;;;;32.90;14.43;;;;;;;;;;5070693;28;20472;-50
2023/02/22 03:39:53;;;;;;;32.38;14.45;;;;;;;;;;5072205;28;20070;-50
2023/02/22 03:42:21;;;;;;;38.17;14.60;;;;;;;;;;5070662;28;20028;-50
2023/02/22 03:44:47;;;;;;;32.65;13.32;;;;;;;;;;5072013;28;20020;-50
2023/02/22 03:47:20;;;;;;;31.10;13.50;;;;;;;;;;5070618;28;20070;-50
2023/02/22 03:49:49;;;;;;;33.20;15.55;;;;;;;;;;5070449;28;20071;-50
2023/02/22 03:52:14;;;;;;;29.13;13.38;;;;;;;;;;5071740;28;20024;-51
2023/02/22 03:54:40;;;;;;;33.83;14.48;;;;;;;;;;5070467;28;20030;-50
2023/02/22 03:57:12;;;;;;;38.38;14.13;;;;;;;;;;5070454;28;20106;-50
2023/02/22 03:59:40;;;;;;;29.13;13.52;;;;;;;;;;5070369;28;20032;-50
2023/02/22 04:02:06;;;;;;;36.05;14.85;;;;;;;;;;5070331;28;20027;-50
2023/02/22 04:04:31;;;;;;;37.00;15.20;;;;;;;;;;5071716;28;20029;-50
2023/02/22 04:06:59;;;;;;;33.75;13.50;;;;;;;;;;5071898;28;20421;-51
2023/02/22 04:09:25;;;;;;;36.80;14.73;;;;;;;;;;5053612;28;20513;-50
2023/02/22 04:11:51;;;;;;;39.95;15.48;;;;;;;;;;5053636;28;20104;-50
2023/02/22 04:14:16;;;;;;;32.30;12.57;;;;;;;;;;5071502;28;20028;-50
2023/02/22 04:16:42;;;;;;;35.65;13.75;;;;;;;;;;5070235;28;20021;-50
2023/02/22 04:19:08;;;;;;;31.17;13.73;;;;;;;;;;5071316;28;20489;-50
2023/02/22 04:21:36;;;;;;;31.60;13.50;;;;;;;;;;5071794;28;20020;-50
2023/02/22 04:24:02;;;;;;;29.20;11.85;;;;;;;;;;5070102;28;20388;-50
2023/02/22 04:26:27;;;;;;;27.88;12.50;;;;;;;;;;5069711;28;20031;-50
2023/02/22 04:28:56;;;;;;;41.38;14.70;;;;;;;;;;5069930;28;20486;-50
2023/02/22 04:31:23;;;;;;;33.53;13.65;;;;;;;;;;5070027;28;20091;-50
2023/02/22 04:33:50;;;;;;;28.50;13.60;;;;;;;;;;5069903;28;20124;-50
2023/02/22 04:36:20;;;;;;;27.10;11.60;;;;;;;;;;5069909;28;20028;-50
2023/02/22 04:38:46;;;;;;;34.53;15.23;;;;;;;;;;5069977;28;20062;-50
2023/02/22 04:41:11;;;;;;;37.28;16.75;;;;;;;;;;5069911;28;20099;-50
2023/02/22 04:43:37;;;;;;;28.60;14.32;;;;;;;;;;5069924;28;20040;-50
2023/02/22 04:46:14;;;;;;;25.05;12.15;;;;;;;;;;5054869;28;20036;-50
2023/02/22 04:48:40;;;;;;;38.17;12.52;;;;;;;;;;5071310;28;20028;-50
2023/02/22 04:51:05;;;;;;;29.73;14.40;;;;;;;;;;5071128;28;20042;-50
2023/02/22 04:53:31;;;;;;;26.90;13.63;;;;;;;;;;5069865;28;20032;-50
2023/02/22 04:55:56;;;;;;;26.48;11.20;;;;;;;;;;5069825;28;20360;-50
2023/02/22 04:58:22;;;;;;;30.52;13.57;;;;;;;;;;5069735;28;20028;-50
2023/02/22 05:00:48;;;;;;;28.50;12.68;;;;;;;;;;5071040;28;20521;-50
2023/02/22 05:03:14;;;;;;;31.55;12.48;;;;;;;;;;5070967;28;20075;-50
2023/02/22 05:05:39;;;;;;;29.58;13.63;;;;;;;;;;5069731;28;20021;-50
2023/02/22 05:08:05;;;;;;;34.00;13.73;;;;;;;;;;5070853;28;20433;-50
2023/02/22 05:10:30;;;;;;;33.28;13.50;;;;;;;;;;5070967;28;20012;-50
2023/02/22 05:12:56;;;;;;;37.85;14.73;;;;;;;;;;5070848;28;20499;-52
2023/02/22 05:15:24;;;;;;;25.05;11.65;;;;;;;;;;5070901;28;20017;-50
2023/02/22 05:17:50;;;;;;;42.58;13.63;;;;;;;;;;5070894;28;20032;-50
2023/02/22 05:20:22;;;;;;;26.17;12.68;;;;;;;;;;5070758;28;20035;-50
2023/02/22 05:22:48;;;;;;;32.22;12.85;;;;;;;;;;5070958;28;20079;-50
2023/02/22 05:25:13;;;;;;;25.95;10.05;;;;;;;;;;5070783;28;20051;-50
2023/02/22 05:27:38;;;;;;;33.92;12.80;;;;;;;;;;5070975;28;20038;-50
2023/02/22 05:30:04;;;;;;;27.98;12.10;;;;;;;;;;5070863;28;20024;-50
2023/02/22 05:32:30;;;;;;;33.08;12.73;;;;;;;;;;5070017;28;20048;-50
2023/02/22 05:34:55;;;;;;;32.00;12.30;;;;;;;;;;5070838;28;20032;-50
2023/02/22 05:37:21;;;;;;;28.30;12.93;;;;;;;;;;5070937;28;20024;-50
2023/02/22 05:39:46;;;;;;;38.05;11.27;;;;;;;;;;5074614;28;20031;-49
2023/02/22 05:42:11;;;;;;;37.38;13.05;;;;;;;;;;5074244;28;20107;-50
2023/02/22 05:44:37;;;;;;;33.00;12.65;;;;;;;;;;5074584;28;20021;-49
2023/02/22 05:47:03;;;;;;;33.03;13.02;;;;;;;;;;5072982;28;20166;-50
2023/02/22 05:49:28;;;;;;;29.15;12.57;;;;;;;;;;5074001;28;20166;-50
2023/02/22 05:51:58;;;;;;;34.78;13.90;;;;;;;;;;5072987;28;20029;-50
2023/02/22 05:54:23;;;;;;;32.55;13.75;;;;;;;;;;5074046;28;20027;-51
2023/02/22 05:56:49;;;;;;;26.60;10.75;;;;;;;;;;5073998;28;20119;-50
2023/02/22 05:59:14;;;;;;;26.73;13.27;;;;;;;;;;5073876;28;20032;-50
2023/02/22 06:01:40;;;;;;;34.63;12.88;;;;;;;;;;5073874;28;20043;-50
2023/02/22 06:04:05;;;;;;;25.77;10.73;;;;;;;;;;5072683;28;20107;-50
2023/02/22 06:06:30;;;;;;;28.67;11.25;;;;;;;;;;5073817;28;20039;-51
2023/02/22 06:08:56;;;;;;;29.70;13.05;;;;;;;;;;5073659;28;20466;-51
2023/02/22 06:11:21;;;;;;;30.35;12.30;;;;;;;;;;5073694;28;20107;-50
2023/02/22 06:13:50;;;;;;;22.42;9.93;;;;;;;;;;5073740;28;20066;-51
2023/02/22 06:16:16;;;;;;;24.67;9.90;;;;;;;;;;5073862;28;20029;-50
2023/02/22 06:18:41;;;;;;;33.20;13.10;;;;;;;;;;5073676;28;20012;-49
2023/02/22 06:21:07;;;;;;;29.00;12.25;;;;;;;;;;5073591;28;20444;-50
2023/02/22 06:23:32;;;;;;;26.85;12.93;;;;;;;;;;5073580;28;20458;-50
2023/02/22 06:25:58;;;;;;;39.00;15.63;;;;;;;;;;5073538;28;20082;-50
2023/02/22 06:28:25;;;;;;;38.03;13.18;;;;;;;;;;5073287;28;20365;-50
2023/02/22 06:30:50;;;;;;;27.52;11.88;;;;;;;;;;5073717;28;20024;-50
2023/02/22 06:33:16;;;;;;;33.92;12.98;;;;;;;;;;5073091;28;20052;-50
2023/02/22 06:35:41;;;;;;;31.25;12.88;;;;;;;;;;5073507;28;20063;-50
2023/02/22 06:38:07;;;;;;;24.88;10.13;;;;;;;;;;5073272;28;20071;-50
2023/02/22 06:40:33;;;;;;;30.35;13.68;;;;;;;;;;5073108;28;20040;-50
2023/02/22 06:42:58;;;;;;;29.05;12.38;;;;;;;;;;5073277;28;20062;-50
2023/02/22 06:45:24;;;;;;;32.20;12.32;;;;;;;;;;5071833;28;20082;-50
2023/02/22 06:47:50;;;;;;;36.33;11.82;;;;;;;;;;5072941;28;20020;-49
2023/02/22 06:50:23;;;;;;;36.90;13.88;;;;;;;;;;5072721;28;20043;-50
2023/02/22 06:52:48;;;;;;;26.85;12.27;;;;;;;;;;5072905;28;20017;-50
2023/02/22 06:55:21;;;;;;;29.25;12.45;;;;;;;;;;5072852;28;20119;-50
2023/02/22 06:57:46;;;;;;;;;;;;;;;;;;5073310;28;20092;-50
2023/02/22 07:00:14;;;;;;;30.25;13.75;;;;;;;;;;5072817;28;20015;-50
2023/02/22 07:02:40;;;;;;;32.45;12.15;;;;;;;;;;5071541;28;20021;-50
2023/02/22 07:05:05;;;;;;;34.60;12.40;;;;;;;;;;5071534;28;20036;-50
2023/02/22 07:07:31;;;;;;;37.38;16.23;;;;;;;;;;5072551;28;20024;-50
2023/02/22 07:09:56;;;;;;;37.33;14.88;;;;;;;;;;5072795;28;20120;-50
2023/02/22 07:12:22;;;;;;;26.48;10.50;;;;;;;;;;5071372;28;20368;-50
2023/02/22 07:14:48;;;;;;;45.72;15.57;;;;;;;;;;5072494;28;20110;-50
2023/02/22 07:17:14;;;;;;;36.72;12.80;;;;;;;;;;5072368;28;20033;-50
2023/02/22 07:19:39;;;;;;;25.20;11.52;;;;;;;;;;5072502;28;20020;-50
2023/02/22 07:22:05;;;;;;;29.10;12.65;;;;;;;;;;5071067;28;20033;-49
2023/02/22 07:24:30;;;;;;;31.55;12.82;;;;;;;;;;5072308;28;20024;-50
2023/02/22 07:26:56;;;;;;;39.10;12.57;;;;;;;;;;5072334;28;20029;-50
2023/02/22 07:29:21;;;;;;;30.67;13.35;;;;;;;;;;5054135;28;20036;-50
2023/02/22 07:31:47;;;;;;;39.28;14.88;;;;;;;;;;5072511;28;20024;-50
2023/02/22 07:34:13;;;;;;;34.40;10.90;;;;;;;;;;5071898;28;20051;-50
2023/02/22 07:36:38;;;;;;;30.92;11.48;;;;;;;;;;5072146;28;20073;-50
2023/02/22 07:39:07;;;;;;;32.40;13.52;;;;;;;;;;5072099;28;20073;-50
2023/02/22 07:41:33;;;;;;;32.22;12.27;;;;;;;;;;5071978;28;20025;-50
2023/02/22 07:43:58;;;;;;;24.85;10.52;;;;;;;;;;5072042;28;20099;-50
2023/02/22 07:46:24;;;;;;;29.25;13.43;;;;;;;;;;5071854;28;20111;-50
2023/02/22 07:48:49;;;;;;;33.10;12.52;;;;;;;;;;5071796;28;20126;-50
2023/02/22 07:51:15;;;;;;;31.30;13.38;;;;;;;;;;5071839;28;20032;-50
2023/02/22 07:53:41;;;;;;;31.20;11.50;;;;;;;;;;5053845;28;20070;-50
2023/02/22 07:56:07;;;;;;;36.83;10.98;;;;;;;;;;5071789;28;20035;-50
2023/02/22 07:58:34;;;;;;;40.80;13.98;;;;;;;;;;5070361;28;20028;-50
2023/02/22 08:01:00;;;;;;;34.47;11.40;;;;;;;;;;5069896;28;20024;-51
2023/02/22 08:03:26;;;;;;;37.95;13.32;;;;;;;;;;5070372;28;20383;-50
2023/02/22 08:05:53;;;;;;;30.55;13.77;;;;;;;;;;5070478;28;20035;-50
2023/02/22 08:08:19;;;;;;;24.45;11.23;;;;;;;;;;5071474;28;20020;-50
2023/02/22 08:10:45;;;;;;;35.95;14.15;;;;;;;;;;5071608;28;20123;-50
2023/02/22 08:13:10;;;;;;;33.47;12.15;;;;;;;;;;5071820;28;20012;-50
2023/02/22 08:15:37;;;;;;;24.70;11.35;;;;;;;;;;5071835;28;20032;-50
2023/02/22 08:18:04;;;;;;;22.50;10.65;;;;;;;;;;5071447;28;20016;-50
2023/02/22 08:20:30;;;;;;;33.83;12.40;;;;;;;;;;5071477;28;20032;-50
2023/02/22 08:22:56;;;;;;;37.88;15.25;;;;;;;;;;5071508;28;20086;-50
2023/02/22 08:25:24;;;;;;;24.65;12.27;;;;;;;;;;5071405;28;20040;-50
2023/02/22 08:27:50;;;;;;;30.38;13.05;;;;;;;;;;5071260;28;20021;-50
2023/02/22 08:30:18;;;;;;;33.05;14.70;;;;;;;;;;5071297;28;20548;-50
2023/02/22 08:32:44;;;;;;;18.30;8.93;;;;;;;;;;5071215;28;20486;-50
2023/02/22 08:35:12;;;;;;;32.42;12.85;;;;;;;;;;5071223;28;20044;-50
2023/02/22 08:37:40;;;;;;;33.13;14.50;;;;;;;;;;5071533;28;20033;-50
2023/02/22 08:40:06;;;;;;;31.65;12.50;;;;;;;;;;5070128;28;20074;-50
2023/02/22 08:42:32;;;;;;;30.30;10.48;;;;;;;;;;5071474;28;20020;-50
2023/02/22 08:44:57;;;;;;;30.73;10.77;;;;;;;;;;5071516;28;20103;-50
2023/02/22 08:47:22;;;;;;;25.10;11.82;;;;;;;;;;5071058;28;20079;-50
2023/02/22 08:49:48;;;;;;;34.30;13.95;;;;;;;;;;5071099;28;20044;-50
2023/02/22 08:52:13;;;;;;;22.08;11.20;;;;;;;;;;5071390;28;20025;-50
2023/02/22 08:54:39;;;;;;;33.53;13.23;;;;;;;;;;5071091;28;20174;-50
2023/02/22 08:57:04;;;;;;;30.10;10.13;;;;;;;;;;5071062;28;20118;-50
2023/02/22 08:59:30;;;;;;;37.20;13.63;;;;;;;;;;5071053;28;20036;-50
2023/02/22 09:01:55;;;;;;;23.50;11.57;;;;;;;;;;5071098;28;20020;-50
2023/02/22 09:04:21;;;;;;;36.05;15.07;;;;;;;;;;5071297;28;20037;-50
2023/02/22 09:06:50;;;;;;;36.80;12.93;;;;;;;;;;5071014;28;20062;-51
2023/02/22 09:09:17;;;;;;;26.92;11.00;;;;;;;;;;5071248;28;20044;-50
2023/02/22 09:11:43;;;;;;;31.85;13.15;;;;;;;;;;5071076;28;20112;-50
2023/02/22 09:14:09;;;;;;;30.88;12.38;;;;;;;;;;5074477;28;20111;-50
2023/02/22 09:16:36;;;;;;;36.75;13.00;;;;;;;;;;5074912;28;20473;-50
2023/02/22 09:19:02;;;;;;;29.67;12.43;;;;;;;;;;5074658;28;20032;-50
2023/02/22 09:21:28;;;;;;;29.02;12.55;;;;;;;;;;5074614;28;20095;-50
2023/02/22 09:23:53;;;;;;;29.15;12.20;;;;;;;;;;5074686;28;20034;-50
2023/02/22 09:26:19;;;;;;;29.45;13.68;;;;;;;;;;5074794;28;20016;-50
2023/02/22 09:28:44;;;;;;;29.17;12.68;;;;;;;;;;5074571;28;20402;-50
2023/02/22 09:31:10;;;;;;;46.13;14.30;;;;;;;;;;5074521;28;20451;-50
2023/02/22 09:33:35;;;;;;;34.15;13.13;;;;;;;;;;5074320;28;20445;-50
2023/02/22 09:36:01;;;;;;;34.67;14.07;;;;;;;;;;5074529;28;20024;-50
2023/02/22 09:38:28;;;;;;;32.97;12.02;;;;;;;;;;5074260;28;20028;-50
2023/02/22 09:41:00;;;;;;;34.97;14.32;;;;;;;;;;5074409;28;20028;-50
2023/02/22 09:43:32;;;;;;;32.38;13.30;;;;;;;;;;5074188;28;20035;-50
2023/02/22 09:46:01;;;;;;;34.50;14.82;;;;;;;;;;5074572;28;20036;-50
2023/02/22 09:48:30;;;;;;;30.02;14.52;;;;;;;;;;5074208;28;20100;-50
2023/02/22 09:50:57;;;;;;;27.80;13.52;;;;;;;;;;5074165;28;20032;-50
2023/02/22 09:53:30;;;;;;;37.45;12.45;;;;;;;;;;5074123;28;20126;-50
2023/02/22 09:56:03;;;;;;;32.72;12.88;;;;;;;;;;5074092;28;20083;-50
2023/02/22 09:58:32;;;;;;;;;;;;;;;;;;5073132;28;20040;-49
2023/02/22 10:01:03;;;;;;;36.45;12.80;;;;;;;;;;5074242;28;20346;-50
2023/02/22 10:03:29;;;;;;;31.13;14.35;;;;;;;;;;5073886;28;20495;-50
2023/02/22 10:05:59;;;;;;;33.25;13.48;;;;;;;;;;5074120;28;20028;-50
2023/02/22 10:08:28;;;;;;;33.33;14.93;;;;;;;;;;5073610;28;20036;-50
2023/02/22 10:11:09;;;;;;;29.92;13.65;;;;;;;;;;5073759;28;20078;-50
2023/02/22 10:13:47;;;;;;;36.05;13.05;;;;;;;;;;5073743;28;20112;-50
2023/02/22 10:16:13;;;;;;;33.15;13.00;;;;;;;;;;5073642;28;20024;-50
2023/02/22 10:18:38;;;;;;;29.75;13.30;;;;;;;;;;5072419;28;20478;-50
2023/02/22 10:21:20;;;;;;;34.45;14.90;;;;;;;;;;5073661;28;20028;-50
2023/02/22 10:23:52;;;;;;;32.95;13.90;;;;;;;;;;5073025;28;20471;-50
2023/02/22 10:26:33;;;;;;;39.53;14.10;;;;;;;;;;5073405;28;20475;-50
2023/02/22 10:29:05;;;;;;;28.15;12.40;;;;;;;;;;5073671;28;20228;-50
2023/02/22 10:31:32;;;;;;;41.47;14.02;;;;;;;;;;5073315;28;20017;-50
2023/02/22 10:34:04;;;;;;;43.17;14.02;;;;;;;;;;5073187;28;20052;-50
2023/02/22 10:36:30;;;;;;;24.83;11.60;;;;;;;;;;5073521;28;20056;-50
2023/02/22 10:38:58;;;;;;;36.78;14.38;;;;;;;;;;5073271;28;20423;-50
2023/02/22 10:41:29;;;;;;;26.50;13.43;;;;;;;;;;5073128;28;20028;-50
2023/02/22 10:43:55;;;;;;;40.33;15.50;;;;;;;;;;5073448;28;20036;-50
2023/02/22 10:46:22;;;;;;;28.70;10.48;;;;;;;;;;5073094;28;20383;-50
2023/02/22 10:48:53;;;;;;;35.38;15.48;;;;;;;;;;5073022;28;20045;-50
2023/02/22 10:51:19;;;;;;;34.80;12.15;;;;;;;;;;5073001;28;20025;-50
2023/02/22 10:53:52;;;;;;;34.15;12.27;;;;;;;;;;5071655;28;20036;-50
2023/02/22 10:56:22;;;;;;;30.00;12.10;;;;;;;;;;5072863;28;20115;-50
2023/02/22 10:58:53;;;;;;;29.45;12.55;;;;;;;;;;5072851;28;20032;-50
2023/02/22 11:01:27;;;;;;;34.65;12.90;;;;;;;;;;5072788;28;20182;-50
2023/02/22 11:04:10;;;;;;;35.13;12.27;;;;;;;;;;5072748;28;20028;-50
2023/02/22 11:06:36;;;;;;;;;;;;;;;;;;5073596;28;20040;-50
2023/02/22 11:09:09;;;;;;;32.22;13.95;;;;;;;;;;5072564;28;19912;-50
2023/02/22 11:11:34;;;;;;;32.20;13.18;;;;;;;;;;5072882;28;20058;-50
2023/02/22 11:14:02;;;;;;;29.13;12.52;;;;;;;;;;5072527;28;20470;-50
2023/02/22 11:16:27;;;;;;;27.08;13.20;;;;;;;;;;5072496;28;20039;-50
2023/02/22 11:19:10;;;;;;;33.47;13.75;;;;;;;;;;5072536;28;20016;-50
2023/02/22 11:21:36;;;;;;;28.70;10.77;;;;;;;;;;5072689;28;20032;-50
2023/02/22 11:24:05;;;;;;;38.00;12.40;;;;;;;;;;5072322;28;20021;-50
2023/02/22 11:26:36;;;;;;;38.42;14.23;;;;;;;;;;5072551;28;20036;-50
2023/02/22 11:29:08;;;;;;;39.95;14.20;;;;;;;;;;5072164;28;20048;-50
2023/02/22 11:31:40;;;;;;;27.50;10.10;;;;;;;;;;5072153;28;20395;-50
2023/02/22 11:34:06;;;;;;;31.40;12.52;;;;;;;;;;5072083;28;20048;-50
2023/02/22 11:36:39;;;;;;;31.52;12.55;;;;;;;;;;5071258;28;20025;-50
2023/02/22 11:39:22;;;;;;;31.30;12.20;;;;;;;;;;5072060;28;20036;-50
2023/02/22 11:41:50;;;;;;;32.03;12.90;;;;;;;;;;5072105;28;20062;-50
2023/02/22 11:44:22;;;;;;;34.72;13.15;;;;;;;;;;5072200;28;20044;-50
2023/02/22 11:46:49;;;;;;;33.40;13.13;;;;;;;;;;5071942;28;20075;-50
2023/02/22 11:49:16;;;;;;;35.25;13.93;;;;;;;;;;5071786;28;20064;-50
2023/02/22 11:51:41;;;;;;;31.48;13.73;;;;;;;;;;5071833;28;20035;-50
2023/02/22 11:54:24;;;;;;;42.53;13.43;;;;;;;;;;5070554;28;20020;-50
2023/02/22 11:56:59;;;;;;;27.80;12.25;;;;;;;;;;5071709;28;20032;-50
2023/02/22 11:59:48;;;;;;;31.38;11.70;;;;;;;;;;5071942;28;20040;-50
2023/02/22 12:02:23;;;;;;;32.53;13.60;;;;;;;;;;5070436;28;20427;-50
2023/02/22 12:04:48;;;;;;;26.15;11.75;;;;;;;;;;5071902;28;20186;-50
2023/02/22 12:07:33;;;;;;;40.65;15.55;;;;;;;;;;5071804;28;20131;-50
2023/02/22 12:10:05;;;;;;;30.77;11.40;;;;;;;;;;5071710;28;20068;-50
2023/02/22 12:12:31;;;;;;;22.55;12.52;;;;;;;;;;5071602;28;20055;-51
2023/02/22 12:14:56;;;;;;;28.38;12.18;;;;;;;;;;5071484;28;20401;-50
2023/02/22 12:17:27;;;;;;;33.67;11.65;;;;;;;;;;5071464;28;20028;-50
2023/02/22 12:20:00;;;;;;;30.80;12.75;;;;;;;;;;5071590;28;20029;-50
2023/02/22 12:22:27;;;;;;;32.17;12.70;;;;;;;;;;5071474;28;20048;-50
2023/02/22 12:25:01;;;;;;;27.58;11.98;;;;;;;;;;5071488;28;20029;-50
2023/02/22 12:27:32;;;;;;;36.78;14.48;;;;;;;;;;5071304;28;20107;-50
2023/02/22 12:30:12;;;;;;;35.05;13.43;;;;;;;;;;5071356;28;20041;-50
2023/02/22 12:32:47;;;;;;;31.60;13.45;;;;;;;;;;5071139;28;20029;-50
2023/02/22 12:35:42;;;;;;;26.75;10.52;;;;;;;;;;5071375;28;20119;-50
2023/02/22 12:38:21;;;;;;;35.97;14.55;;;;;;;;;;5054243;28;20115;-50
2023/02/22 12:40:53;;;;;;;37.45;12.32;;;;;;;;;;5071372;28;20024;-50
2023/02/22 12:43:30;;;;;;;26.10;11.65;;;;;;;;;;5071244;28;20031;-50
2023/02/22 12:45:58;;;;;;;23.55;11.60;;;;;;;;;;5071298;28;20055;-50
2023/02/22 12:48:44;;;;;;;32.42;11.93;;;;;;;;;;5074857;28;20667;-50
2023/02/22 12:51:15;;;;;;;34.10;12.95;;;;;;;;;;5074853;28;20041;-50
2023/02/22 12:53:43;;;;;;;21.25;8.65;;;;;;;;;;5075326;28;20411;-50
2023/02/22 12:56:09;;;;;;;31.30;9.27;;;;;;;;;;5075512;28;20122;-51
2023/02/22 12:58:38;;;;;;;37.17;13.55;;;;;;;;;;5075082;28;20032;-51
2023/02/22 13:01:20;;;;;;;32.70;13.20;;;;;;;;;;5075225;28;20157;-50
2023/02/22 13:03:47;;;;;;;31.58;13.05;;;;;;;;;;5075107;28;20060;-50
2023/02/22 13:06:31;;;;;;;26.02;10.25;;;;;;;;;;5075096;28;20463;-50
2023/02/22 13:08:57;;;;;;;38.22;13.38;;;;;;;;;;5075107;28;20040;-50
2023/02/22 13:11:22;;;;;;;31.73;13.88;;;;;;;;;;5074886;28;20016;-54
2023/02/22 13:13:56;;;;;;;33.65;13.70;;;;;;;;;;5074976;28;20056;-50
2023/02/22 13:16:41;;;;;;;33.78;12.77;;;;;;;;;;5074775;28;20055;-50
2023/02/22 13:19:22;;;;;;;38.35;13.55;;;;;;;;;;5074789;28;20453;-51
2023/02/22 13:21:50;;;;;;;25.30;13.13;;;;;;;;;;5074833;28;20036;-50
2023/02/22 13:24:22;;;;;;;33.05;13.70;;;;;;;;;;5074836;28;20020;-50
2023/02/22 13:26:56;;;;;;;32.47;14.15;;;;;;;;;;5074907;28;20033;-50
2023/02/22 13:29:27;;;;;;;43.97;14.38;;;;;;;;;;5074397;28;20048;-51
2023/02/22 13:32:07;;;;;;;29.65;11.80;;;;;;;;;;5074823;28;20020;-50
2023/02/22 13:34:40;;;;;;;37.03;14.60;;;;;;;;;;5074383;28;20056;-51
2023/02/22 13:37:24;;;;;;;40.08;12.88;;;;;;;;;;5074385;28;20036;-50
2023/02/22 13:40:12;;;;;;;34.80;12.77;;;;;;;;;;5074448;28;20425;-51
2023/02/22 13:42:37;;;;;;;29.65;14.50;;;;;;;;;;5074259;28;20086;-50
2023/02/22 13:45:03;;;;;;;36.28;14.40;;;;;;;;;;5073006;28;20028;-50
2023/02/22 13:47:45;;;;;;;39.10;13.70;;;;;;;;;;5074098;28;20028;-50
2023/02/22 13:50:26;;;;;;;49.53;16.38;;;;;;;;;;5074177;28;20037;-50
2023/02/22 13:52:54;;;;;;;37.85;15.50;;;;;;;;;;5074140;28;20035;-50
2023/02/22 13:55:26;;;;;;;35.85;14.20;;;;;;;;;;5074071;28;20449;-50
2023/02/22 13:57:58;;;;;;;33.20;11.85;;;;;;;;;;5073491;28;20036;-50
2023/02/22 14:00:39;;;;;;;34.15;13.82;;;;;;;;;;5073679;28;20130;-50
2023/02/22 14:03:11;;;;;;;32.70;14.18;;;;;;;;;;5074320;28;20417;-50
2023/02/22 14:05:40;;;;;;;29.00;10.73;;;;;;;;;;5073824;28;20036;-50
2023/02/22 14:08:06;;;;;;;25.00;13.77;;;;;;;;;;5073718;28;20098;-50
2023/02/22 14:10:35;;;;;;;28.80;14.38;;;;;;;;;;5074341;28;20037;-50
2023/02/22 14:13:05;;;;;;;35.53;14.32;;;;;;;;;;5073823;28;20047;-50
2023/02/22 14:15:31;;;;;;;19.95;9.77;;;;;;;;;;5073746;28;20028;-50
2023/02/22 14:18:00;;;;;;;38.47;13.02;;;;;;;;;;5073599;28;20356;-50
2023/02/22 14:20:32;;;;;;;33.75;13.23;;;;;;;;;;5073632;28;20467;-50
2023/02/22 14:23:18;;;;;;;23.92;11.77;;;;;;;;;;5073616;28;20029;-50
2023/02/22 14:25:44;;;;;;;38.08;13.68;;;;;;;;;;5073488;28;20090;-51
2023/02/22 14:28:29;;;;;;;31.67;14.07;;;;;;;;;;5072214;28;20095;-50